Phillips, Wisconsin
Current Conditions -  °F | °C
As of 10:55 PM on Wednesday 22 Oct 2014 (Local Time) from KPBH Reporting Station
Broken Clouds Broken Clouds  
Wind Chill:   Ceiling: 9000
Heat Index:   Visibility: 10mi
Dew Point:   Wind: 10mph
Humidity: 64%   Direction: 170°S
Pressure: 30.13"   Gusts: NA
Location:  45.69°N, 90.41°W
Report Text: KPBH 230355Z AUTO 17009KT 10SM SCT065 BKN090 08/02 A3013 RMK AO2 LTG DSNT SW T00820018
Loading
Personal Weather Stations






























Interactive Weather Map
Tropical Storm Tracking
New forecast layout! Learn more

10-Day Weather Forecast

Advertisements
Track Severe Weather on mobile